Time;durP1;ratioP1;P1;durP2;ratioP2;P2;SDS_P1;SDS_P2;PMS_P1;PMS_P2;Temp;Humidity;BMP_temperature;BMP_pressure;BME280_temperature;BME280_humidity;BME280_pressure;Samples;Min_cycle;Max_cycle;Signal;HPM_P1;HPM_P2
2022/07/23 00:00:35;;;;;;;;;;;;;;;25.66;42.15;99739.72;3158431;28;19935;-66
2022/07/23 00:02:06;;;;;;;;;;;;;;;25.65;42.42;99743.41;3158361;28;19924;-66
2022/07/23 00:03:38;;;;;;;;;;;;;;;25.56;43.13;99755.09;3158513;28;20011;-66
2022/07/23 00:05:10;;;;;;;;;;;;;;;25.47;43.24;99745.38;3158317;28;19931;-66
2022/07/23 00:06:41;;;;;;;;;;;;;;;25.44;43.06;99746.59;3158173;28;19931;-66
2022/07/23 00:08:13;;;;;;;;;;;;;;;25.43;42.39;99742.22;3158480;28;19935;-66
2022/07/23 00:09:44;;;;;;;;;;;;;;;25.45;42.86;99744.75;3158451;28;20317;-66
2022/07/23 00:11:17;;;;;;;;;;;;;;;25.41;42.78;99749.59;3158489;28;20380;-66
2022/07/23 00:12:48;;;;;;;;;;;;;;;25.40;42.55;99743.41;3158469;28;19924;-68
2022/07/23 00:14:19;;;;;;;;;;;;;;;25.40;42.55;99750.56;3157952;28;19925;-65
2022/07/23 00:15:51;;;;;;;;;;;;;;;25.40;42.51;99746.06;3158469;28;19928;-65
2022/07/23 00:17:23;;;;;;;;;;;;;;;25.39;42.56;99744.41;3158152;28;19924;-65
2022/07/23 00:18:54;;;;;;;;;;;;;;;25.38;42.54;99747.25;3157856;28;19931;-65
2022/07/23 00:20:26;;;;;;;;;;;;;;;25.36;42.57;99746.56;3158191;28;19936;-65
2022/07/23 00:21:57;;;;;;;;;;;;;;;25.33;42.99;99749.56;3158066;28;19924;-65
2022/07/23 00:23:30;;;;;;;;;;;;;;;25.25;43.28;99742.38;3158210;28;19981;-65
2022/07/23 00:25:02;;;;;;;;;;;;;;;25.21;43.42;99748.22;3158270;28;19935;-65
2022/07/23 00:26:34;;;;;;;;;;;;;;;25.17;43.53;99745.03;3158197;28;20334;-65
2022/07/23 00:28:06;;;;;;;;;;;;;;;25.14;43.07;99745.38;3158152;28;20123;-65
2022/07/23 00:29:36;;;;;;;;;;;;;;;25.14;43.08;99740.91;3158029;28;19924;-65
2022/07/23 00:31:08;;;;;;;;;;;;;;;25.13;43.48;99749.88;3157933;28;19931;-65
2022/07/23 00:32:46;;;;;;;;;;;;;;;25.14;43.22;99743.56;3158571;28;19924;-65
2022/07/23 00:34:17;;;;;;;;;;;;;;;25.12;43.25;99745.53;3166522;28;19935;-65
2022/07/23 00:35:49;;;;;;;;;;;;;;;25.11;43.57;99748.34;3158022;28;19974;-65
2022/07/23 00:37:21;;;;;;;;;;;;;;;25.07;43.62;99744.34;3158044;28;19940;-65
2022/07/23 00:38:52;;;;;;;;;;;;;;;24.98;43.83;99741.66;3158126;28;19928;-65
2022/07/23 00:40:24;;;;;;;;;;;;;;;24.98;43.53;99746.97;3157752;28;20257;-65
2022/07/23 00:41:56;;;;;;;;;;;;;;;24.94;44.05;99747.50;3157947;28;19928;-65
2022/07/23 00:43:27;;;;;;;;;;;;;;;24.90;43.71;99746.97;3157893;28;19983;-65
2022/07/23 00:44:59;;;;;;;;;;;;;;;24.87;44.29;99749.13;3158281;28;19932;-65
2022/07/23 00:46:31;;;;;;;;;;;;;;;24.81;44.53;99747.94;3157959;28;19935;-65
2022/07/23 00:48:02;;;;;;;;;;;;;;;24.75;44.48;99749.41;3158007;28;19933;-65
2022/07/23 00:49:33;;;;;;;;;;;;;;;24.71;45.00;99747.25;3158068;28;19924;-65
2022/07/23 00:51:05;;;;;;;;;;;;;;;24.66;44.73;99747.72;3157907;28;19985;-65
2022/07/23 00:52:36;;;;;;;;;;;;;;;24.62;44.99;99743.72;3158064;28;19924;-65
2022/07/23 00:54:08;;;;;;;;;;;;;;;24.59;45.26;99753.88;3158131;28;19985;-66
2022/07/23 00:55:39;;;;;;;;;;;;;;;24.46;45.05;99743.66;3157782;28;19925;-65
2022/07/23 00:57:12;;;;;;;;;;;;;;;24.55;45.00;99752.50;3157257;28;19983;-65
2022/07/23 00:58:44;;;;;;;;;;;;;;;24.52;44.75;99751.84;3157667;28;20316;-66
2022/07/23 01:00:16;;;;;;;;;;;;;;;24.52;45.16;99757.19;3157773;28;19928;-65
2022/07/23 01:01:48;;;;;;;;;;;;;;;24.50;45.38;99756.50;3158087;28;20400;-65
2022/07/23 01:03:20;;;;;;;;;;;;;;;24.46;45.36;99757.81;3157600;28;19924;-65
2022/07/23 01:04:52;;;;;;;;;;;;;;;24.45;45.54;99763.28;3157811;28;20312;-66
2022/07/23 01:06:23;;;;;;;;;;;;;;;24.41;46.02;99759.25;3158623;28;19931;-66
2022/07/23 01:07:55;;;;;;;;;;;;;;;24.38;45.72;99760.41;3160154;28;19924;-66
2022/07/23 01:09:27;;;;;;;;;;;;;;;24.40;45.38;99754.91;3160369;28;19924;-65
2022/07/23 01:10:58;;;;;;;;;;;;;;;24.40;45.37;99758.44;3167823;28;20362;-65
2022/07/23 01:12:31;;;;;;;;;;;;;;;24.41;45.85;99754.75;3162137;28;19924;-65
2022/07/23 01:14:08;;;;;;;;;;;;;;;24.39;45.36;99750.59;3160386;28;19957;-66
2022/07/23 01:15:40;;;;;;;;;;;;;;;24.38;45.97;99754.25;3160096;28;19935;-66
2022/07/23 01:17:12;;;;;;;;;;;;;;;24.35;45.80;99755.41;3160285;28;19924;-65
2022/07/23 01:18:43;;;;;;;;;;;;;;;24.35;45.65;99751.91;3160296;28;19935;-66
2022/07/23 01:20:14;;;;;;;;;;;;;;;24.35;45.86;99749.25;3160187;28;19924;-66
2022/07/23 01:21:47;;;;;;;;;;;;;;;24.33;45.57;99748.56;3160242;28;20340;-65
2022/07/23 01:23:20;;;;;;;;;;;;;;;24.34;45.64;99747.56;3160032;28;20072;-66
2022/07/23 01:24:50;;;;;;;;;;;;;;;24.34;45.45;99747.56;3160215;28;19931;-65
2022/07/23 01:26:22;;;;;;;;;;;;;;;24.30;45.72;99747.88;3159908;28;20258;-66
2022/07/23 01:27:54;;;;;;;;;;;;;;;24.28;46.04;99749.03;3160002;28;19928;-66
2022/07/23 01:29:25;;;;;;;;;;;;;;;24.23;46.13;99746.03;3164623;28;19943;-66
2022/07/23 01:30:57;;;;;;;;;;;;;;;24.21;45.99;99742.69;3168179;28;20352;-65
2022/07/23 01:32:28;;;;;;;;;;;;;;;24.16;46.41;99748.47;3159998;28;19924;-66
2022/07/23 01:34:00;;;;;;;;;;;;;;;24.10;46.39;99749.09;3159930;28;19924;-66
2022/07/23 01:35:31;;;;;;;;;;;;;;;24.07;46.45;99752.91;3159842;28;19931;-66
2022/07/23 01:37:02;;;;;;;;;;;;;;;24.03;46.72;99748.91;3160207;28;19992;-65
2022/07/23 01:38:35;;;;;;;;;;;;;;;23.97;46.69;99756.69;3159908;28;19928;-66
2022/07/23 01:40:07;;;;;;;;;;;;;;;23.96;46.43;99755.00;3159610;28;20457;-65
2022/07/23 01:41:39;;;;;;;;;;;;;;;23.95;46.61;99754.16;3160029;28;19963;-65
2022/07/23 01:43:11;;;;;;;;;;;;;;;23.93;46.52;99750.00;3159945;28;19932;-65
2022/07/23 01:44:42;;;;;;;;;;;;;;;23.90;46.50;99753.81;3159792;28;20030;-66
2022/07/23 01:46:14;;;;;;;;;;;;;;;23.88;46.18;99747.81;3159772;28;19928;-66
2022/07/23 01:47:44;;;;;;;;;;;;;;;23.90;46.00;99745.00;3159469;28;20413;-65
2022/07/23 01:49:16;;;;;;;;;;;;;;;23.87;46.11;99753.28;3159768;28;19989;-65
2022/07/23 01:50:48;;;;;;;;;;;;;;;23.87;45.66;99751.47;3160089;28;19924;-65
2022/07/23 01:52:19;;;;;;;;;;;;;;;23.89;45.68;99748.66;3159613;28;19924;-65
2022/07/23 01:53:52;;;;;;;;;;;;;;;23.88;45.80;99752.31;3160016;28;19928;-65
2022/07/23 01:55:24;;;;;;;;;;;;;;;23.87;46.00;99751.47;3159458;28;19947;-66
2022/07/23 01:56:55;;;;;;;;;;;;;;;23.87;45.68;99747.97;3159601;28;19924;-66
2022/07/23 01:58:29;;;;;;;;;;;;;;;23.89;45.84;99752.13;3158937;28;20338;-66
2022/07/23 02:00:00;;;;;;;;;;;;;;;23.89;45.56;99752.13;3159716;28;20371;-66
2022/07/23 02:01:32;;;;;;;;;;;;;;;23.89;45.78;99749.47;3159565;28;20242;-65
2022/07/23 02:03:03;;;;;;;;;;;;;;;23.93;45.66;99744.66;3159485;28;19928;-66
2022/07/23 02:04:36;;;;;;;;;;;;;;;23.94;45.89;99751.69;3159639;28;20239;-66
2022/07/23 02:06:07;;;;;;;;;;;;;;;23.91;45.67;99752.00;3159990;28;20013;-66
2022/07/23 02:07:38;;;;;;;;;;;;;;;23.91;45.64;99746.69;3159626;28;19928;-66
2022/07/23 02:09:11;;;;;;;;;;;;;;;23.89;45.58;99754.78;3159664;28;19935;-66
2022/07/23 02:10:42;;;;;;;;;;;;;;;23.87;45.77;99748.81;3160387;28;19924;-66
2022/07/23 02:12:14;;;;;;;;;;;;;;;23.84;45.71;99749.13;3159106;28;19928;-65
2022/07/23 02:13:45;;;;;;;;;;;;;;;23.87;45.56;99750.63;3159431;28;19928;-65
2022/07/23 02:15:17;;;;;;;;;;;;;;;23.87;45.62;99748.81;3159429;28;20325;-65
2022/07/23 02:16:49;;;;;;;;;;;;;;;23.88;45.34;99752.31;3159449;28;19924;-65
2022/07/23 02:18:20;;;;;;;;;;;;;;;23.87;45.50;99754.13;3159316;28;20254;-65
2022/07/23 02:19:51;;;;;;;;;;;;;;;23.87;45.69;99755.94;3159353;28;20313;-65
2022/07/23 02:21:22;;;;;;;;;;;;;;;23.88;45.20;99757.63;3159608;28;19932;-65
2022/07/23 02:22:54;;;;;;;;;;;;;;;23.89;45.56;99756.63;3159573;28;19928;-65
2022/07/23 02:24:27;;;;;;;;;;;;;;;23.83;46.02;99756.25;3159149;28;19928;-65
2022/07/23 02:25:58;;;;;;;;;;;;;;;23.73;46.03;99755.53;3161133;28;19928;-65
2022/07/23 02:27:30;;;;;;;;;;;;;;;23.65;46.49;99746.63;3159354;28;19931;-65
2022/07/23 02:29:02;;;;;;;;;;;;;;;23.58;46.35;99752.56;3159017;28;20321;-65
2022/07/23 02:30:33;;;;;;;;;;;;;;;23.60;46.24;99749.72;3159256;28;20189;-65
2022/07/23 02:32:05;;;;;;;;;;;;;;;23.60;46.24;99761.22;3158972;28;19931;-65
2022/07/23 02:33:36;;;;;;;;;;;;;;;23.61;45.77;99757.56;3158817;28;20025;-65
2022/07/23 02:35:08;;;;;;;;;;;;;;;23.61;45.89;99762.88;3158823;28;19936;-65
2022/07/23 02:36:40;;;;;;;;;;;;;;;23.64;45.90;99766.22;3158874;28;19947;-65
2022/07/23 02:38:12;;;;;;;;;;;;;;;23.61;45.99;99760.22;3158997;28;20389;-65
2022/07/23 02:39:45;;;;;;;;;;;;;;;23.60;45.84;99755.03;3159075;28;19924;-65
2022/07/23 02:41:16;;;;;;;;;;;;;;;23.60;46.07;99755.91;3158785;28;19924;-65
2022/07/23 02:42:48;;;;;;;;;;;;;;;23.58;45.84;99747.25;3158946;28;19924;-65
2022/07/23 02:44:18;;;;;;;;;;;;;;;23.59;45.76;99756.03;3158797;28;19924;-65
2022/07/23 02:45:50;;;;;;;;;;;;;;;23.55;46.11;99746.72;3158971;28;19935;-65
2022/07/23 02:47:21;;;;;;;;;;;;;;;23.55;46.27;99750.22;3158987;28;19935;-65
2022/07/23 02:48:53;;;;;;;;;;;;;;;23.50;46.59;99765.78;3158811;28;19924;-65
2022/07/23 02:50:25;;;;;;;;;;;;;;;23.48;46.33;99762.44;3159171;28;19978;-65
2022/07/23 02:51:56;;;;;;;;;;;;;;;23.44;46.46;99757.59;3158692;28;19931;-65
2022/07/23 02:53:28;;;;;;;;;;;;;;;23.43;46.69;99758.59;3158779;28;19932;-66
2022/07/23 02:55:01;;;;;;;;;;;;;;;23.40;46.41;99759.72;3158965;28;19924;-66
2022/07/23 02:56:32;;;;;;;;;;;;;;;23.36;46.81;99759.16;3158728;28;20366;-66
2022/07/23 02:58:04;;;;;;;;;;;;;;;23.36;46.74;99766.31;3158886;28;19924;-66
2022/07/23 02:59:35;;;;;;;;;;;;;;;23.31;47.01;99758.81;3158794;28;19928;-66
2022/07/23 03:01:07;;;;;;;;;;;;;;;23.29;46.94;99766.09;3158696;28;19924;-66
2022/07/23 03:02:39;;;;;;;;;;;;;;;23.31;46.74;99765.94;3158942;28;19924;-66
2022/07/23 03:04:10;;;;;;;;;;;;;;;23.30;46.58;99762.44;3158910;28;19935;-66
2022/07/23 03:05:42;;;;;;;;;;;;;;;23.32;46.69;99762.31;3158680;28;19977;-66
2022/07/23 03:07:14;;;;;;;;;;;;;;;23.31;46.70;99765.94;3158865;28;19957;-66
2022/07/23 03:08:45;;;;;;;;;;;;;;;23.29;46.52;99768.75;3158954;28;19935;-66
2022/07/23 03:10:18;;;;;;;;;;;;;;;23.30;46.46;99758.94;3160919;28;19928;-66
2022/07/23 03:11:50;;;;;;;;;;;;;;;23.30;46.53;99769.56;3166174;28;19924;-66
2022/07/23 03:13:21;;;;;;;;;;;;;;;23.30;46.43;99772.22;3158932;28;19930;-66
2022/07/23 03:14:53;;;;;;;;;;;;;;;23.28;46.60;99769.75;3158832;28;19924;-66
2022/07/23 03:16:24;;;;;;;;;;;;;;;23.26;46.49;99766.41;3158747;28;19935;-66
2022/07/23 03:17:55;;;;;;;;;;;;;;;23.25;46.71;99762.06;3158766;28;19928;-66
2022/07/23 03:19:27;;;;;;;;;;;;;;;23.27;46.35;99768.06;3158895;28;20324;-66
2022/07/23 03:20:59;;;;;;;;;;;;;;;23.29;46.52;99766.09;3158729;28;19954;-66
2022/07/23 03:22:30;;;;;;;;;;;;;;;23.31;46.08;99769.44;3159262;28;19962;-66
2022/07/23 03:24:02;;;;;;;;;;;;;;;23.35;46.10;99773.44;3158479;28;20075;-66
2022/07/23 03:25:35;;;;;;;;;;;;;;;23.35;46.54;99778.75;3158868;28;19924;-66
2022/07/23 03:27:05;;;;;;;;;;;;;;;23.35;46.20;99775.28;3158625;28;20401;-66
2022/07/23 03:28:37;;;;;;;;;;;;;;;23.37;46.34;99775.97;3158534;28;19984;-66
2022/07/23 03:30:09;;;;;;;;;;;;;;;23.39;46.04;99777.47;3158199;28;20361;-66
2022/07/23 03:31:41;;;;;;;;;;;;;;;23.41;46.11;99779.97;3158520;28;20432;-66
2022/07/23 03:33:12;;;;;;;;;;;;;;;23.40;46.41;99775.66;3158513;28;20397;-66
2022/07/23 03:34:44;;;;;;;;;;;;;;;23.38;46.17;99774.97;3158286;28;19950;-66
2022/07/23 03:36:15;;;;;;;;;;;;;;;23.36;46.17;99775.09;3158479;28;19939;-66
2022/07/23 03:37:47;;;;;;;;;;;;;;;23.39;46.27;99776.63;3158096;28;20012;-66
2022/07/23 03:39:18;;;;;;;;;;;;;;;23.39;46.13;99777.47;3158386;28;19924;-66
2022/07/23 03:40:51;;;;;;;;;;;;;;;23.40;46.09;99775.66;3158436;28;19936;-66
2022/07/23 03:42:23;;;;;;;;;;;;;;;23.41;45.88;99776.50;3158362;28;19947;-66
2022/07/23 03:43:54;;;;;;;;;;;;;;;23.44;45.85;99786.81;3158438;28;19989;-66
2022/07/23 03:45:25;;;;;;;;;;;;;;;23.42;46.10;99780.81;3158391;28;20383;-66
2022/07/23 03:46:56;;;;;;;;;;;;;;;23.45;46.09;99780.50;3158244;28;19924;-66
2022/07/23 03:48:27;;;;;;;;;;;;;;;23.47;45.79;99779.38;3158641;28;20290;-66
2022/07/23 03:49:59;;;;;;;;;;;;;;;23.49;45.79;99787.22;3158414;28;19924;-66
2022/07/23 03:51:30;;;;;;;;;;;;;;;23.49;46.16;99777.41;3158216;28;19928;-66
2022/07/23 03:53:02;;;;;;;;;;;;;;;23.47;45.93;99782.03;3158244;28;19931;-66
2022/07/23 03:54:33;;;;;;;;;;;;;;;23.46;46.39;99777.72;3158058;28;20239;-66
2022/07/23 03:56:07;;;;;;;;;;;;;;;23.47;46.26;99783.84;3158170;28;19946;-66
2022/07/23 03:57:38;;;;;;;;;;;;;;;23.48;46.27;99782.84;3158151;28;19947;-66
2022/07/23 03:59:09;;;;;;;;;;;;;;;23.47;46.01;99781.19;3158325;28;19996;-66
2022/07/23 04:00:41;;;;;;;;;;;;;;;23.43;46.41;99775.34;3158169;28;19931;-65
2022/07/23 04:02:12;;;;;;;;;;;;;;;23.42;46.50;99786.13;3158259;28;20335;-65
2022/07/23 04:03:44;;;;;;;;;;;;;;;23.38;46.36;99781.13;3157734;28;20345;-65
2022/07/23 04:05:15;;;;;;;;;;;;;;;23.34;46.71;99782.41;3158492;28;19932;-65
2022/07/23 04:06:47;;;;;;;;;;;;;;;23.36;46.55;99785.75;3158088;28;20239;-65
2022/07/23 04:08:18;;;;;;;;;;;;;;;23.32;46.55;99775.59;3158219;28;19947;-65
2022/07/23 04:09:50;;;;;;;;;;;;;;;23.34;46.29;99781.59;3158274;28;19932;-65
2022/07/23 04:11:23;;;;;;;;;;;;;;;23.32;46.37;99776.41;3168580;28;19924;-66
2022/07/23 04:12:55;;;;;;;;;;;;;;;23.33;46.58;99782.56;3158127;28;20317;-66
2022/07/23 04:14:26;;;;;;;;;;;;;;;23.33;46.46;99774.59;3145857;28;20251;-65
2022/07/23 04:15:58;;;;;;;;;;;;;;;23.30;46.49;99781.03;3156663;28;20313;-65
2022/07/23 04:17:29;;;;;;;;;;;;;;;23.29;46.57;99782.03;3158484;28;19924;-65
2022/07/23 04:19:01;;;;;;;;;;;;;;;23.28;46.33;99779.50;3161666;28;19928;-65
2022/07/23 04:20:32;;;;;;;;;;;;;;;23.29;46.47;99779.38;3158388;28;19932;-65
2022/07/23 04:22:04;;;;;;;;;;;;;;;23.28;46.62;99785.69;3158422;28;20329;-65
2022/07/23 04:23:36;;;;;;;;;;;;;;;23.25;46.41;99788.66;3158045;28;20017;-65
2022/07/23 04:25:08;;;;;;;;;;;;;;;23.28;46.46;99782.16;3145793;28;19994;-65
2022/07/23 04:26:39;;;;;;;;;;;;;;;23.28;46.71;99788.34;3156661;28;19924;-65
2022/07/23 04:28:11;;;;;;;;;;;;;;;23.28;46.52;99780.38;3158245;28;20014;-65
2022/07/23 04:29:43;;;;;;;;;;;;;;;23.32;46.39;99786.22;3158154;28;19928;-65
2022/07/23 04:31:14;;;;;;;;;;;;;;;23.36;46.24;99792.88;3158114;28;19981;-65
2022/07/23 04:32:46;;;;;;;;;;;;;;;23.38;46.36;99789.09;3157946;28;19935;-65
2022/07/23 04:34:16;;;;;;;;;;;;;;;23.38;46.14;99789.09;3158448;28;19977;-66
2022/07/23 04:35:48;;;;;;;;;;;;;;;23.38;46.10;99796.22;3158037;28;20003;-65
2022/07/23 04:37:20;;;;;;;;;;;;;;;23.37;46.24;99790.09;3158088;28;20037;-65
2022/07/23 04:38:51;;;;;;;;;;;;;;;23.41;46.26;99793.28;3158294;28;19928;-66
2022/07/23 04:40:23;;;;;;;;;;;;;;;23.42;46.15;99788.78;3158205;28;19924;-66
2022/07/23 04:41:56;;;;;;;;;;;;;;;23.42;46.22;99788.78;3159666;28;20384;-66
2022/07/23 04:43:26;;;;;;;;;;;;;;;23.45;46.26;99783.16;3160607;28;19924;-66
2022/07/23 04:44:58;;;;;;;;;;;;;;;23.45;46.18;99788.47;3160590;28;19977;-65
2022/07/23 04:46:30;;;;;;;;;;;;;;;23.45;46.09;99784.00;3160536;28;19924;-65
2022/07/23 04:48:01;;;;;;;;;;;;;;;23.47;46.39;99789.16;3160327;28;19940;-65
2022/07/23 04:49:33;;;;;;;;;;;;;;;23.47;46.20;99782.03;3160317;28;20019;-66
2022/07/23 04:51:04;;;;;;;;;;;;;;;23.46;46.35;99790.16;3160632;28;20357;-65
2022/07/23 04:52:36;;;;;;;;;;;;;;;23.48;46.06;99789.00;3160150;28;20361;-65
2022/07/23 04:54:08;;;;;;;;;;;;;;;23.53;45.97;99796.53;3160008;28;20258;-65
2022/07/23 04:55:38;;;;;;;;;;;;;;;23.53;46.30;99796.53;3160344;28;20301;-65
2022/07/23 04:57:11;;;;;;;;;;;;;;;23.55;45.87;99799.88;3160106;28;19953;-65
2022/07/23 04:58:42;;;;;;;;;;;;;;;23.57;46.03;99800.53;3160421;28;19924;-65
2022/07/23 05:00:14;;;;;;;;;;;;;;;23.59;46.14;99802.06;3160153;28;19924;-66
2022/07/23 05:01:45;;;;;;;;;;;;;;;23.60;46.01;99789.59;3160152;28;19989;-65
2022/07/23 05:03:17;;;;;;;;;;;;;;;23.64;46.04;99788.31;3160582;28;19928;-65
2022/07/23 05:04:48;;;;;;;;;;;;;;;23.67;46.25;99798.66;3160172;28;19947;-65
2022/07/23 05:06:20;;;;;;;;;;;;;;;23.69;46.19;99799.31;3160236;28;19947;-65
2022/07/23 05:07:51;;;;;;;;;;;;;;;23.68;46.20;99794.16;3160522;28;20320;-65
2022/07/23 05:09:23;;;;;;;;;;;;;;;23.69;46.26;99795.81;3160310;28;20006;-65
2022/07/23 05:10:55;;;;;;;;;;;;;;;23.71;46.17;99794.72;3167815;28;20031;-65
2022/07/23 05:12:28;;;;;;;;;;;;;;;23.72;46.14;99796.41;3162586;28;20391;-65
2022/07/23 05:13:59;;;;;;;;;;;;;;;23.76;46.13;99800.41;3161527;28;19925;-65
2022/07/23 05:15:31;;;;;;;;;;;;;;;23.80;45.77;99798.28;3165497;28;19950;-65
2022/07/23 05:17:02;;;;;;;;;;;;;;;23.82;45.83;99796.31;3160002;28;19978;-65
2022/07/23 05:18:33;;;;;;;;;;;;;;;23.87;45.87;99794.03;3160066;28;19981;-65
2022/07/23 05:20:05;;;;;;;;;;;;;;;23.92;45.85;99789.06;3160334;28;20010;-65
2022/07/23 05:21:36;;;;;;;;;;;;;;;23.95;45.76;99788.75;3159770;28;19928;-65
2022/07/23 05:23:08;;;;;;;;;;;;;;;23.98;45.44;99788.44;3160145;28;19924;-65
2022/07/23 05:24:40;;;;;;;;;;;;;;;24.02;45.70;99781.81;3160076;28;19924;-65
2022/07/23 05:26:11;;;;;;;;;;;;;;;24.08;45.40;99796.34;3160121;28;19928;-65
2022/07/23 05:27:44;;;;;;;;;;;;;;;24.13;45.45;99793.19;3159581;28;20431;-66
2022/07/23 05:29:16;;;;;;;;;;;;;;;24.17;45.18;99795.38;3159569;28;19928;-65
2022/07/23 05:30:47;;;;;;;;;;;;;;;24.23;45.17;99789.44;3159967;28;19981;-65
2022/07/23 05:32:19;;;;;;;;;;;;;;;24.30;45.40;99786.97;3159966;28;19928;-65
2022/07/23 05:33:51;;;;;;;;;;;;;;;24.36;45.05;99791.66;3159838;28;20321;-66
2022/07/23 05:35:21;;;;;;;;;;;;;;;24.42;44.97;99788.41;3160086;28;20020;-64
2022/07/23 05:36:53;;;;;;;;;;;;;;;24.49;44.78;99783.25;3159959;28;19924;-67
2022/07/23 05:38:23;;;;;;;;;;;;;;;24.56;44.96;99778.97;3159917;28;20605;-67
2022/07/23 05:39:55;;;;;;;;;;;;;;;24.64;44.73;99781.69;3159591;28;19986;-65
2022/07/23 05:41:27;;;;;;;;;;;;;;;24.73;44.55;99782.56;3159609;28;19935;-65
2022/07/23 05:43:00;;;;;;;;;;;;;;;24.84;44.28;99778.75;3160048;28;19947;-67
2022/07/23 05:44:31;;;;;;;;;;;;;;;24.90;44.47;99780.75;3159938;28;19928;-65
2022/07/23 05:46:02;;;;;;;;;;;;;;;24.99;44.01;99779.78;3159804;28;19931;-67
2022/07/23 05:47:40;;;;;;;;;;;;;;;25.06;44.25;99780.81;3159963;28;19924;-64
2022/07/23 05:49:11;;;;;;;;;;;;;;;25.15;44.23;99777.19;3147758;28;19935;-64
2022/07/23 05:50:43;;;;;;;;;;;;;;;25.22;44.19;99777.38;3159841;28;19924;-64
2022/07/23 05:52:15;;;;;;;;;;;;;;;25.29;44.20;99788.19;3159468;28;19924;-64
2022/07/23 05:53:46;;;;;;;;;;;;;;;25.32;43.57;99778.06;3159681;28;19935;-64
2022/07/23 05:55:18;;;;;;;;;;;;;;;25.36;43.48;99787.38;3159789;28;19950;-64
2022/07/23 05:56:50;;;;;;;;;;;;;;;25.40;43.49;99788.72;3159357;28;20384;-65
2022/07/23 05:58:23;;;;;;;;;;;;;;;25.46;43.35;99794.38;3159683;28;19986;-65
2022/07/23 05:59:54;;;;;;;;;;;;;;;25.54;43.27;99791.75;3159847;28;19931;-66
2022/07/23 06:01:26;;;;;;;;;;;;;;;25.63;42.86;99794.22;3159528;28;20481;-65
2022/07/23 06:02:57;;;;;;;;;;;;;;;25.70;42.79;99793.56;3159387;28;20413;-65
2022/07/23 06:04:29;;;;;;;;;;;;;;;25.75;42.80;99792.06;3159540;28;19947;-65
2022/07/23 06:06:00;;;;;;;;;;;;;;;25.80;42.96;99789.72;3159937;28;19924;-65
2022/07/23 06:07:31;;;;;;;;;;;;;;;25.89;42.55;99782.59;3159685;28;20298;-65
2022/07/23 06:09:02;;;;;;;;;;;;;;;25.98;42.27;99789.59;3159558;28;19930;-65
2022/07/23 06:10:34;;;;;;;;;;;;;;;26.05;42.12;99789.72;3160043;28;19931;-65
2022/07/23 06:12:06;;;;;;;;;;;;;;;26.14;42.06;99788.72;3159783;28;19928;-66
2022/07/23 06:13:39;;;;;;;;;;;;;;;26.21;42.12;99784.38;3159450;28;19935;-66
2022/07/23 06:15:11;;;;;;;;;;;;;;;26.29;42.10;99794.19;3159502;28;20367;-67
2022/07/23 06:16:41;;;;;;;;;;;;;;;26.38;41.59;99787.81;3159473;28;19940;-67
2022/07/23 06:18:13;;;;;;;;;;;;;;;26.48;41.92;99787.63;3159582;28;20373;-67
2022/07/23 06:19:45;;;;;;;;;;;;;;;26.55;41.94;99784.09;3159646;28;19924;-65
2022/07/23 06:21:16;;;;;;;;;;;;;;;26.67;41.37;99781.06;3159620;28;19928;-67
2022/07/23 06:22:48;;;;;;;;;;;;;;;26.72;41.49;99790.22;3159545;28;19935;-67
2022/07/23 06:24:19;;;;;;;;;;;;;;;26.81;41.11;99782.19;3159499;28;19931;-65
2022/07/23 06:25:50;;;;;;;;;;;;;;;26.85;40.82;99786.97;3159378;28;19928;-65
2022/07/23 06:27:21;;;;;;;;;;;;;;;26.94;41.21;99785.94;3159040;28;19931;-67
2022/07/23 06:28:54;;;;;;;;;;;;;;;27.01;40.92;99783.41;3159682;28;19925;-65
2022/07/23 06:30:26;;;;;;;;;;;;;;;27.11;40.98;99791.19;3159316;28;19928;-65
2022/07/23 06:31:57;;;;;;;;;;;;;;;27.19;40.46;99780.47;3159655;28;19924;-65
2022/07/23 06:33:28;;;;;;;;;;;;;;;27.29;40.32;99788.25;3159482;28;20007;-66
2022/07/23 06:34:59;;;;;;;;;;;;;;;27.37;39.89;99786.38;3159475;28;19924;-66
2022/07/23 06:36:31;;;;;;;;;;;;;;;27.45;39.89;99778.28;3159556;28;19928;-65
2022/07/23 06:38:02;;;;;;;;;;;;;;;27.51;39.66;99773.22;3159154;28;19924;-65
2022/07/23 06:39:34;;;;;;;;;;;;;;;27.64;39.88;99776.13;3159412;28;19970;-66
2022/07/23 06:41:06;;;;;;;;;;;;;;;27.73;39.86;99780.38;3159215;28;20387;-65
2022/07/23 06:42:39;;;;;;;;;;;;;;;27.85;39.51;99780.81;3159149;28;20324;-65
2022/07/23 06:44:11;;;;;;;;;;;;;;;27.94;39.20;99773.53;3159335;28;19928;-66
2022/07/23 06:45:43;;;;;;;;;;;;;;;27.99;38.55;99776.50;3159552;28;19993;-66
2022/07/23 06:47:15;;;;;;;;;;;;;;;28.03;38.31;99775.94;3158758;28;20048;-66
2022/07/23 06:48:46;;;;;;;;;;;;;;;28.04;38.28;99779.44;3159437;28;19928;-67
2022/07/23 06:50:18;;;;;;;;;;;;;;;28.09;38.37;99771.72;3159170;28;19935;-67
2022/07/23 06:51:49;;;;;;;;;;;;;;;28.17;37.84;99771.63;3159214;28;19928;-65
2022/07/23 06:53:21;;;;;;;;;;;;;;;28.26;37.82;99773.19;3159275;28;19981;-65
2022/07/23 06:54:53;;;;;;;;;;;;;;;28.33;37.57;99771.44;3159007;28;19925;-65
2022/07/23 06:56:24;;;;;;;;;;;;;;;28.43;37.60;99775.75;3159025;28;19981;-65
2022/07/23 06:57:56;;;;;;;;;;;;;;;28.50;37.64;99765.94;3159202;28;19928;-66
2022/07/23 06:59:29;;;;;;;;;;;;;;;28.56;37.75;99767.84;3158902;28;19928;-65
2022/07/23 07:01:01;;;;;;;;;;;;;;;28.60;37.75;99761.09;3159295;28;19978;-65
2022/07/23 07:02:32;;;;;;;;;;;;;;;28.65;37.59;99763.22;3158971;28;19977;-65
2022/07/23 07:04:04;;;;;;;;;;;;;;;28.69;37.51;99761.81;3158372;28;19932;-65
2022/07/23 07:05:36;;;;;;;;;;;;;;;28.75;37.46;99761.06;3158949;28;19932;-65
2022/07/23 07:07:07;;;;;;;;;;;;;;;28.80;37.52;99759.50;3165322;28;19927;-65
2022/07/23 07:08:39;;;;;;;;;;;;;;;28.85;37.00;99761.63;3164898;28;19931;-65
2022/07/23 07:10:10;;;;;;;;;;;;;;;28.92;36.99;99757.16;3160447;28;19940;-65
2022/07/23 07:11:42;;;;;;;;;;;;;;;29.01;37.19;99757.88;3167499;28;19931;-65
2022/07/23 07:13:13;;;;;;;;;;;;;;;29.07;36.93;99759.81;3158962;28;19954;-65
2022/07/23 07:14:46;;;;;;;;;;;;;;;29.14;36.77;99758.06;3159202;28;19924;-66
2022/07/23 07:16:18;;;;;;;;;;;;;;;29.22;36.39;99755.25;3158763;28;20401;-66
2022/07/23 07:17:49;;;;;;;;;;;;;;;29.31;36.15;99755.09;3158815;28;20401;-66
2022/07/23 07:19:21;;;;;;;;;;;;;;;29.40;36.71;99751.25;3158738;28;19935;-66
2022/07/23 07:20:53;;;;;;;;;;;;;;;29.50;36.53;99753.63;3158956;28;19924;-66
2022/07/23 07:22:24;;;;;;;;;;;;;;;29.57;35.91;99749.16;3158789;28;19946;-66
2022/07/23 07:23:56;;;;;;;;;;;;;;;29.63;36.10;99754.59;3158564;28;19981;-65
2022/07/23 07:25:27;;;;;;;;;;;;;;;29.72;36.01;99754.47;3158732;28;19997;-65
2022/07/23 07:26:59;;;;;;;;;;;;;;;29.82;35.80;99752.28;3158844;28;19924;-65
2022/07/23 07:28:30;;;;;;;;;;;;;;;29.91;36.03;99757.28;3158702;28;19928;-65
2022/07/23 07:30:04;;;;;;;;;;;;;;;30.00;35.04;99747.22;3158657;28;19924;-65
2022/07/23 07:31:35;;;;;;;;;;;;;;;30.10;35.13;99745.00;3158699;28;19924;-65
2022/07/23 07:33:07;;;;;;;;;;;;;;;30.21;35.07;99748.22;3158470;28;19924;-66
2022/07/23 07:34:38;;;;;;;;;;;;;;;30.33;34.46;99741.25;3158724;28;19928;-65
2022/07/23 07:36:10;;;;;;;;;;;;;;;30.46;34.67;99733.25;3158645;28;19928;-65
2022/07/23 07:37:40;;;;;;;;;;;;;;;30.59;34.61;99738.69;3158834;28;19928;-65
2022/07/23 07:39:12;;;;;;;;;;;;;;;30.71;34.66;99735.41;3158600;28;20257;-65
2022/07/23 07:40:44;;;;;;;;;;;;;;;30.83;34.72;99731.13;3158408;28;19931;-66
2022/07/23 07:42:15;;;;;;;;;;;;;;;30.96;34.24;99733.03;3158491;28;19924;-65
2022/07/23 07:43:47;;;;;;;;;;;;;;;31.07;34.25;99728.91;3158513;28;20417;-65
2022/07/23 07:45:20;;;;;;;;;;;;;;;31.17;34.04;99730.16;3158066;28;20383;-66
2022/07/23 07:46:52;;;;;;;;;;;;;;;31.30;33.90;99733.91;3158388;28;19924;-66
2022/07/23 07:48:24;;;;;;;;;;;;;;;31.41;33.38;99727.94;3158388;28;20406;-65
2022/07/23 07:49:56;;;;;;;;;;;;;;;31.52;33.28;99723.81;3158477;28;20321;-66
2022/07/23 07:51:28;;;;;;;;;;;;;;;31.65;33.06;99724.63;3158322;28;19931;-65
2022/07/23 07:53:00;;;;;;;;;;;;;;;31.77;32.68;99722.13;3158233;28;19928;-65
2022/07/23 07:54:32;;;;;;;;;;;;;;;31.88;32.92;99721.47;3158467;28;19928;-65
2022/07/23 07:56:03;;;;;;;;;;;;;;;32.02;32.50;99724.19;3157853;28;19928;-65
2022/07/23 07:57:35;;;;;;;;;;;;;;;32.15;32.20;99716.91;3158097;28;20294;-65